createdAt,value
2018-07-04T00:01:42.132Z,17.77
2018-07-04T00:04:27.350Z,17.03
2018-07-04T00:07:12.311Z,17.93
2018-07-04T00:09:57.295Z,17.60
2018-07-04T00:12:42.235Z,17.90
2018-07-04T00:15:27.266Z,23.77
2018-07-04T00:18:12.179Z,17.73
2018-07-04T00:20:57.369Z,17.70
2018-07-04T00:23:42.440Z,19.07
2018-07-04T00:26:27.574Z,16.70
2018-07-04T00:29:12.536Z,17.03
2018-07-04T00:31:57.493Z,14.10
2018-07-04T00:34:42.552Z,13.80
2018-07-04T00:37:27.569Z,13.43
2018-07-04T00:40:12.635Z,13.53
2018-07-04T00:42:57.701Z,13.57
2018-07-04T00:45:42.638Z,15.07
2018-07-04T00:48:27.679Z,13.23
2018-07-04T00:51:12.675Z,13.60
2018-07-04T00:53:57.653Z,15.90
2018-07-04T00:56:42.603Z,13.33
2018-07-04T00:59:27.805Z,13.73
2018-07-04T01:02:12.725Z,15.20
2018-07-04T01:04:57.718Z,12.63
2018-07-04T01:07:42.591Z,13.33
2018-07-04T01:10:27.727Z,12.67
2018-07-04T01:13:12.753Z,12.60
2018-07-04T01:15:57.834Z,14.20
2018-07-04T01:18:42.776Z,12.30
2018-07-04T01:21:27.891Z,12.87
2018-07-04T01:24:12.836Z,10.87
2018-07-04T01:26:57.783Z,12.87
2018-07-04T01:29:42.766Z,11.03
2018-07-04T01:32:27.873Z,11.03
2018-07-04T01:35:12.908Z,10.60
2018-07-04T01:37:57.970Z,12.27
2018-07-04T01:40:43.032Z,15.77
2018-07-04T01:43:27.960Z,13.13
2018-07-04T01:46:13.008Z,13.47
2018-07-04T01:48:58.031Z,14.40
2018-07-04T01:51:42.925Z,14.47
2018-07-04T01:54:28.061Z,14.93
2018-07-04T01:57:12.938Z,15.93
2018-07-04T01:59:57.916Z,14.97
2018-07-04T02:02:43.028Z,12.73
2018-07-04T02:05:27.940Z,12.43
2018-07-04T02:08:12.961Z,13.47
2018-07-04T02:10:58.030Z,11.90
2018-07-04T02:13:42.977Z,12.30
2018-07-04T02:16:27.868Z,14.80
2018-07-04T02:19:12.881Z,12.77
2018-07-04T02:21:57.930Z,13.40
2018-07-04T02:24:42.864Z,15.73
2018-07-04T02:27:27.797Z,14.53
2018-07-04T02:30:12.779Z,13.40
2018-07-04T02:32:57.842Z,13.40
2018-07-04T02:35:42.901Z,15.00
2018-07-04T02:38:28.010Z,15.27
2018-07-04T02:41:12.913Z,14.17
2018-07-04T02:43:57.844Z,16.07
2018-07-04T02:46:42.801Z,16.30
2018-07-04T02:49:27.813Z,17.60
2018-07-04T02:52:12.851Z,19.10
2018-07-04T02:54:57.917Z,17.60
2018-07-04T02:57:42.759Z,18.13
2018-07-04T03:00:27.730Z,15.87
2018-07-04T03:03:12.667Z,14.97
2018-07-04T03:05:57.636Z,16.93
2018-07-04T03:08:42.588Z,17.77
2018-07-04T03:11:27.759Z,16.00
2018-07-04T03:14:12.807Z,20.63
2018-07-04T03:16:57.719Z,19.63
2018-07-04T03:19:42.651Z,18.47
2018-07-04T03:22:27.697Z,17.27
2018-07-04T03:25:12.731Z,16.82
2018-07-04T03:27:57.595Z,19.87
2018-07-04T03:30:42.593Z,16.17
2018-07-04T03:33:27.491Z,22.40
2018-07-04T03:36:12.559Z,19.47
2018-07-04T03:38:57.511Z,14.40
2018-07-04T03:41:42.978Z,13.07
2018-07-04T03:44:28.136Z,18.27
2018-07-04T03:47:13.171Z,13.30
2018-07-04T03:49:58.097Z,16.30
2018-07-04T03:52:43.050Z,19.50
2018-07-04T03:55:28.341Z,19.00
2018-07-04T03:58:13.434Z,18.83
2018-07-04T04:00:58.495Z,18.43
2018-07-04T04:03:43.547Z,18.97
2018-07-04T04:06:28.610Z,17.10
2018-07-04T04:09:13.656Z,19.80
2018-07-04T04:11:58.659Z,18.80
2018-07-04T04:14:43.739Z,16.53
2018-07-04T04:17:28.682Z,15.80
2018-07-04T04:20:13.632Z,16.57
2018-07-04T04:22:58.569Z,21.00
2018-07-04T04:25:43.495Z,15.83
2018-07-04T04:28:28.365Z,12.23
2018-07-04T04:31:13.289Z,14.13
2018-07-04T04:33:58.333Z,14.57
2018-07-04T04:36:43.329Z,19.73
2018-07-04T04:39:28.304Z,14.70
2018-07-04T04:42:13.314Z,16.40
2018-07-04T04:44:58.217Z,12.53
2018-07-04T04:47:43.300Z,13.63
2018-07-04T04:50:28.291Z,13.93
2018-07-04T04:53:13.269Z,13.90
2018-07-04T04:55:58.358Z,15.27
2018-07-04T04:58:43.382Z,14.80
2018-07-04T05:01:28.335Z,15.43
2018-07-04T05:04:13.411Z,14.80
2018-07-04T05:06:58.530Z,18.50
2018-07-04T05:09:43.499Z,15.37
2018-07-04T05:12:28.556Z,19.57
2018-07-04T05:15:13.497Z,16.97
2018-07-04T05:17:58.571Z,12.40
2018-07-04T05:20:43.571Z,16.90
2018-07-04T05:23:28.586Z,13.80
2018-07-04T05:26:13.635Z,14.47
2018-07-04T05:28:58.572Z,15.37
2018-07-04T05:31:43.654Z,11.87
2018-07-04T05:34:28.694Z,12.70
2018-07-04T05:37:13.726Z,12.83
2018-07-04T05:39:58.850Z,13.20
2018-07-04T05:42:43.877Z,13.77
2018-07-04T05:45:28.942Z,13.37
2018-07-04T05:48:13.970Z,15.57
2018-07-04T05:50:59.178Z,11.93
2018-07-04T05:53:44.024Z,15.90
2018-07-04T05:56:28.899Z,13.27
2018-07-04T05:59:13.907Z,17.20
2018-07-04T06:01:58.909Z,16.60
2018-07-04T06:04:43.905Z,15.90
2018-07-04T06:07:29.069Z,14.77
2018-07-04T06:10:13.988Z,14.67
2018-07-04T06:12:59.065Z,18.00
2018-07-04T06:15:44.016Z,18.40
2018-07-04T06:18:28.938Z,17.93
2018-07-04T06:21:13.982Z,16.77
2018-07-04T06:23:58.962Z,16.37
2018-07-04T06:26:43.986Z,17.43
2018-07-04T06:29:28.978Z,13.33
2018-07-04T06:32:14.130Z,14.03
2018-07-04T06:34:59.243Z,13.83
2018-07-04T06:37:37.655Z,14.43
2018-07-04T06:40:04.431Z,14.40
2018-07-04T06:42:30.911Z,15.20
2018-07-04T06:44:57.419Z,14.97
2018-07-04T06:47:23.966Z,15.30
2018-07-04T06:49:50.543Z,15.93
2018-07-04T06:52:17.335Z,16.70
2018-07-04T06:54:43.816Z,18.47
2018-07-04T06:57:10.302Z,16.23
2018-07-04T06:59:36.790Z,14.93
2018-07-04T07:02:07.415Z,14.50
2018-07-04T07:04:47.077Z,14.43
2018-07-04T07:07:32.334Z,13.03
2018-07-04T07:10:17.334Z,18.77
2018-07-04T07:13:02.322Z,12.40
2018-07-04T07:15:47.288Z,14.27
2018-07-04T07:18:32.267Z,10.23
2018-07-04T07:21:17.379Z,11.00
2018-07-04T07:24:02.314Z,10.47
2018-07-04T07:26:47.277Z,9.07
2018-07-04T07:29:32.348Z,7.53
2018-07-04T07:32:17.353Z,8.77
2018-07-04T07:35:02.270Z,9.40
2018-07-04T07:37:47.271Z,8.13
2018-07-04T07:40:32.365Z,7.73
2018-07-04T07:43:17.391Z,7.13
2018-07-04T07:46:02.390Z,7.93
2018-07-04T07:48:47.594Z,8.57
2018-07-04T07:51:32.591Z,8.83
2018-07-04T07:54:17.569Z,7.60
2018-07-04T07:57:02.384Z,6.67
2018-07-04T07:59:47.424Z,6.73
2018-07-04T08:02:32.596Z,6.77
2018-07-04T08:05:17.469Z,9.20
2018-07-04T08:08:02.503Z,10.17
2018-07-04T08:10:47.571Z,9.63
2018-07-04T08:13:32.411Z,10.03
2018-07-04T08:16:17.427Z,9.67
2018-07-04T08:19:02.614Z,8.53
2018-07-04T08:21:47.710Z,11.97
2018-07-04T08:24:32.720Z,9.47
2018-07-04T08:27:17.796Z,10.07
2018-07-04T08:30:02.829Z,8.73
2018-07-04T08:32:47.883Z,8.97
2018-07-04T08:35:32.803Z,8.73
2018-07-04T08:38:17.826Z,10.10
2018-07-04T08:41:02.920Z,9.43
2018-07-04T08:43:47.928Z,9.40
2018-07-04T08:46:33.076Z,11.10
2018-07-04T08:49:18.118Z,9.20
2018-07-04T08:52:03.164Z,8.60
2018-07-04T08:54:48.242Z,9.10
2018-07-04T08:57:33.274Z,7.07
2018-07-04T09:00:18.345Z,8.97
2018-07-04T09:03:03.434Z,9.30
2018-07-04T09:05:48.558Z,7.33
2018-07-04T09:08:33.543Z,6.77
2018-07-04T09:11:18.541Z,6.60
2018-07-04T09:14:03.773Z,8.13
2018-07-04T09:16:48.883Z,8.87
2018-07-04T09:19:33.859Z,7.07
2018-07-04T09:22:19.033Z,9.20
2018-07-04T09:25:04.315Z,7.90
2018-07-04T09:27:49.521Z,4.20
2018-07-04T09:30:34.526Z,6.23
2018-07-04T09:33:19.503Z,7.50
2018-07-04T09:36:04.552Z,11.50
2018-07-04T09:38:49.745Z,8.60
2018-07-04T09:41:34.692Z,10.43
2018-07-04T09:44:19.596Z,8.27
2018-07-04T09:47:04.547Z,9.33
2018-07-04T09:49:49.628Z,10.93
2018-07-04T09:52:34.536Z,6.53
2018-07-04T09:55:19.625Z,8.30
2018-07-04T09:58:04.777Z,7.60
2018-07-04T10:00:55.516Z,10.77
2018-07-04T10:03:40.656Z,8.23
2018-07-04T10:06:25.752Z,7.47
2018-07-04T10:09:10.907Z,5.87
2018-07-04T10:11:55.918Z,6.37
2018-07-04T10:14:41.114Z,6.27
2018-07-04T10:17:26.302Z,6.13
2018-07-04T10:20:11.490Z,7.33
2018-07-04T10:22:56.678Z,6.80
2018-07-04T10:25:41.691Z,7.30
2018-07-04T10:28:26.551Z,7.30
2018-07-04T10:31:11.597Z,6.13
2018-07-04T10:33:56.477Z,7.57
2018-07-04T10:36:41.561Z,3.93
2018-07-04T10:39:26.509Z,9.03
2018-07-04T10:42:11.691Z,5.97
2018-07-04T10:44:56.831Z,8.40
2018-07-04T10:47:41.846Z,6.17
2018-07-04T10:50:26.901Z,4.80
2018-07-04T10:53:11.860Z,5.90
2018-07-04T10:55:56.773Z,5.77
2018-07-04T10:58:41.743Z,3.93
2018-07-04T11:01:26.653Z,10.13
2018-07-04T11:04:11.734Z,7.13
2018-07-04T11:06:56.696Z,6.23
2018-07-04T11:09:41.735Z,5.37
2018-07-04T11:12:26.751Z,5.67
2018-07-04T11:15:11.764Z,5.00
2018-07-04T11:17:56.865Z,4.07
2018-07-04T11:20:41.921Z,6.20
2018-07-04T11:23:26.865Z,7.07
2018-07-04T11:26:11.859Z,4.90
2018-07-04T11:28:57.086Z,6.20
2018-07-04T11:31:42.012Z,5.17
2018-07-04T11:34:26.999Z,6.97
2018-07-04T11:37:12.093Z,5.87
2018-07-04T11:39:57.149Z,5.37
2018-07-04T11:42:42.172Z,4.73
2018-07-04T11:45:27.144Z,6.10
2018-07-04T11:47:59.965Z,5.70
2018-07-04T11:50:26.507Z,6.20
2018-07-04T11:52:53.032Z,3.13
2018-07-04T11:55:19.538Z,6.47
2018-07-04T11:57:46.122Z,4.80
2018-07-04T12:00:12.719Z,6.93
2018-07-04T12:02:39.428Z,7.90
2018-07-04T12:05:18.525Z,6.33
2018-07-04T12:07:51.104Z,5.73
2018-07-04T12:10:17.681Z,6.23
2018-07-04T12:12:44.518Z,5.27
2018-07-04T12:15:11.100Z,6.53
2018-07-04T12:17:37.644Z,5.83
2018-07-04T12:20:04.217Z,7.97
2018-07-04T12:22:30.745Z,5.03
2018-07-04T12:24:57.301Z,4.07
2018-07-04T12:27:24.582Z,5.27
2018-07-04T12:29:51.139Z,6.03
2018-07-04T12:32:18.024Z,5.67
2018-07-04T12:34:44.650Z,4.63
2018-07-04T12:37:11.181Z,6.03
2018-07-04T12:39:38.005Z,7.77
2018-07-04T12:42:04.794Z,7.97
2018-07-04T12:44:31.338Z,7.17
2018-07-04T12:46:57.960Z,6.73
2018-07-04T12:49:27.604Z,6.10
2018-07-04T12:51:54.427Z,7.60
2018-07-04T12:54:26.497Z,6.23
2018-07-04T12:57:05.414Z,7.27
2018-07-04T12:59:50.448Z,6.83
2018-07-04T13:02:35.493Z,6.47
2018-07-04T13:05:20.647Z,6.57
2018-07-04T13:08:05.813Z,7.97
2018-07-04T13:10:50.769Z,6.70
2018-07-04T13:13:35.814Z,8.33
2018-07-04T13:16:21.170Z,7.20
2018-07-04T13:19:06.228Z,8.20
2018-07-04T13:21:51.205Z,6.73
2018-07-04T13:24:36.240Z,8.60
2018-07-04T13:27:21.620Z,7.30
2018-07-04T13:30:06.589Z,6.13
2018-07-04T13:32:51.804Z,6.70
2018-07-04T13:35:36.835Z,5.50
2018-07-04T13:38:21.897Z,5.40
2018-07-04T13:42:36.358Z,5.40
2018-07-04T13:45:21.344Z,6.20
2018-07-04T13:48:06.294Z,6.53
2018-07-04T13:50:51.240Z,5.80
2018-07-04T13:53:36.273Z,6.57
2018-07-04T13:56:21.335Z,7.40
2018-07-04T13:59:06.525Z,7.70
2018-07-04T14:01:51.670Z,11.57
2018-07-04T14:04:37.097Z,8.83
2018-07-04T14:07:22.281Z,7.10
2018-07-04T14:10:07.240Z,7.10
2018-07-04T14:12:52.171Z,7.37
2018-07-04T14:15:37.074Z,7.70
2018-07-04T14:18:22.035Z,9.87
2018-07-04T14:21:07.088Z,8.00
2018-07-04T14:23:52.098Z,7.70
2018-07-04T14:26:36.956Z,6.00
2018-07-04T14:29:21.938Z,8.50
2018-07-04T14:32:07.357Z,5.70
2018-07-04T14:34:52.393Z,8.00
2018-07-04T14:37:37.435Z,7.57
2018-07-04T14:40:22.451Z,9.40
2018-07-04T14:43:07.374Z,5.47
2018-07-04T14:45:52.448Z,7.03
2018-07-04T14:48:37.476Z,6.03
2018-07-04T14:51:22.389Z,6.07
2018-07-04T14:54:07.490Z,8.13
2018-07-04T14:56:52.473Z,7.80
2018-07-04T14:59:37.530Z,6.10
2018-07-04T15:02:22.663Z,5.50
2018-07-04T15:05:07.762Z,6.17
2018-07-04T15:07:52.841Z,6.07
2018-07-04T15:10:37.882Z,6.40
2018-07-04T15:13:22.814Z,9.80
2018-07-04T15:16:09.612Z,8.63
2018-07-04T15:18:52.684Z,7.77
2018-07-04T15:21:37.749Z,10.00
2018-07-04T15:24:22.690Z,8.43
2018-07-04T15:27:07.616Z,10.33
2018-07-04T15:29:52.746Z,10.50
2018-07-04T15:32:37.729Z,8.10
2018-07-04T15:35:23.684Z,10.80
2018-07-04T15:38:08.754Z,9.70
2018-07-04T15:40:53.762Z,10.67
2018-07-04T15:43:38.683Z,9.73
2018-07-04T15:46:23.620Z,9.03
2018-07-04T15:49:13.058Z,11.67
2018-07-04T15:51:58.457Z,9.90
2018-07-04T15:54:43.603Z,10.10
2018-07-04T15:57:28.716Z,10.73
2018-07-04T16:00:13.745Z,12.23
2018-07-04T16:02:58.703Z,11.77
2018-07-04T16:05:43.789Z,10.87
2018-07-04T16:08:29.013Z,12.23
2018-07-04T16:11:14.080Z,14.33
2018-07-04T16:13:59.160Z,10.37
2018-07-04T16:16:44.334Z,10.67
2018-07-04T16:19:29.411Z,8.83
2018-07-04T16:22:14.516Z,10.10
2018-07-04T16:24:59.814Z,8.30
2018-07-04T16:27:44.986Z,8.53
2018-07-04T16:30:30.159Z,8.73
2018-07-04T16:33:15.174Z,10.30
2018-07-04T16:36:00.199Z,10.50
2018-07-04T16:38:45.219Z,8.97
2018-07-04T16:41:30.241Z,9.80
2018-07-04T16:44:15.254Z,10.57
2018-07-04T16:47:00.275Z,11.70
2018-07-04T16:49:45.364Z,10.60
2018-07-04T16:52:30.562Z,13.97
2018-07-04T16:55:15.493Z,9.90
2018-07-04T16:58:00.524Z,21.67
2018-07-04T17:00:45.499Z,27.77
2018-07-04T17:03:30.432Z,12.17
2018-07-04T17:06:15.518Z,10.77
2018-07-04T17:09:00.532Z,25.77
2018-07-04T17:11:45.605Z,17.47
2018-07-04T17:14:30.604Z,21.77
2018-07-04T17:17:15.641Z,31.27
2018-07-04T17:20:00.698Z,26.93
2018-07-04T17:22:45.699Z,26.77
2018-07-04T17:25:30.670Z,46.60
2018-07-04T17:28:15.723Z,68.40
2018-07-04T17:31:00.780Z,45.13
2018-07-04T17:33:46.054Z,44.17
2018-07-04T17:36:31.164Z,37.23
2018-07-04T17:39:16.331Z,15.23
2018-07-04T17:42:01.410Z,21.00
2018-07-04T17:44:46.839Z,11.60
2018-07-04T17:47:31.866Z,16.47
2018-07-04T17:50:16.871Z,44.87
2018-07-04T17:53:01.840Z,28.87
2018-07-04T17:55:46.859Z,91.60
2018-07-04T17:58:32.233Z,27.03
2018-07-04T18:01:17.261Z,37.70
2018-07-04T18:04:02.340Z,17.37
2018-07-04T18:06:47.351Z,16.90
2018-07-04T18:09:32.573Z,13.47
2018-07-04T18:12:17.695Z,17.27
2018-07-04T18:15:02.705Z,11.23
2018-07-04T18:17:47.751Z,12.53
2018-07-04T18:20:32.772Z,11.07
2018-07-04T18:23:17.684Z,10.97
2018-07-04T18:26:02.768Z,12.20
2018-07-04T18:28:47.739Z,10.70
2018-07-04T18:31:32.709Z,9.77
2018-07-04T18:34:18.670Z,13.33
2018-07-04T18:37:03.729Z,12.57
2018-07-04T18:39:48.712Z,11.53
2018-07-04T18:42:33.855Z,10.63
2018-07-04T18:45:18.806Z,14.43
2018-07-04T18:48:04.379Z,11.07
2018-07-04T18:50:49.631Z,10.33
2018-07-04T18:53:34.740Z,10.37
2018-07-04T18:56:19.870Z,13.17
2018-07-04T18:59:04.853Z,11.97
2018-07-04T19:01:50.011Z,9.23
2018-07-04T19:04:34.981Z,17.90
2018-07-04T19:07:20.253Z,10.63
2018-07-04T19:10:05.318Z,13.87
2018-07-04T19:12:50.184Z,10.83
2018-07-04T19:15:35.180Z,11.17
2018-07-04T19:18:20.319Z,10.27
2018-07-04T19:21:05.799Z,12.23
2018-07-04T19:23:50.995Z,16.10
2018-07-04T19:26:36.085Z,11.43
2018-07-04T19:29:20.958Z,11.33
2018-07-04T19:32:05.975Z,10.50
2018-07-04T19:34:51.102Z,10.23
2018-07-04T19:37:36.086Z,13.83
2018-07-04T19:40:21.054Z,10.40
2018-07-04T19:43:05.999Z,11.80
2018-07-04T19:45:51.085Z,12.80
2018-07-04T19:48:36.336Z,13.93
2018-07-04T19:51:21.380Z,11.97
2018-07-04T19:54:06.417Z,14.10
2018-07-04T19:56:51.455Z,11.03
2018-07-04T19:59:36.566Z,11.43
2018-07-04T20:02:21.577Z,15.50
2018-07-04T20:05:06.500Z,10.73
2018-07-04T20:07:51.454Z,16.27
2018-07-04T20:10:36.633Z,14.73
2018-07-04T20:13:21.573Z,13.73
2018-07-04T20:16:06.651Z,15.77
2018-07-04T20:18:51.625Z,10.40
2018-07-04T20:21:36.768Z,12.80
2018-07-04T20:24:21.662Z,10.93
2018-07-04T20:27:06.865Z,12.30
2018-07-04T20:29:51.851Z,11.87
2018-07-04T20:32:36.957Z,10.17
2018-07-04T20:35:22.056Z,9.87
2018-07-04T20:38:07.172Z,14.63
2018-07-04T20:40:52.162Z,10.83
2018-07-04T20:43:37.242Z,13.07
2018-07-04T20:46:22.154Z,15.40
2018-07-04T20:49:07.316Z,12.33
2018-07-04T20:51:52.386Z,15.07
2018-07-04T20:54:37.418Z,9.43
2018-07-04T20:57:22.382Z,11.10
2018-07-04T21:00:07.617Z,11.53
2018-07-04T21:02:52.640Z,11.57
2018-07-04T21:05:37.651Z,13.77
2018-07-04T21:08:22.917Z,10.97
2018-07-04T21:11:07.946Z,8.93
2018-07-04T21:13:53.032Z,11.53
2018-07-04T21:16:38.191Z,10.27
2018-07-04T21:19:23.315Z,9.10
2018-07-04T21:22:08.544Z,11.13
2018-07-04T21:24:53.668Z,11.33
2018-07-04T21:27:38.711Z,15.13
2018-07-04T21:30:23.852Z,13.70
2018-07-04T21:33:08.960Z,12.10
2018-07-04T21:35:54.079Z,16.43
2018-07-04T21:38:39.361Z,15.17
2018-07-04T21:41:24.473Z,11.03
2018-07-04T21:44:09.687Z,14.10
2018-07-04T21:46:54.677Z,11.23
2018-07-04T21:49:39.926Z,12.10
2018-07-04T21:52:24.843Z,10.67
2018-07-04T21:55:09.996Z,10.50
2018-07-04T21:57:55.046Z,13.90
2018-07-04T22:00:39.945Z,10.57
2018-07-04T22:03:25.178Z,15.77
2018-07-04T22:06:10.328Z,11.97
2018-07-04T22:08:55.412Z,11.43
2018-07-04T22:11:40.475Z,9.93
2018-07-04T22:14:25.431Z,13.10
2018-07-04T22:17:10.517Z,11.77
2018-07-04T22:19:55.590Z,13.87
2018-07-04T22:22:41.236Z,15.90
2018-07-04T22:25:26.607Z,15.37
2018-07-04T22:28:11.705Z,12.87
2018-07-04T22:30:56.609Z,12.57
2018-07-04T22:33:41.579Z,14.50
2018-07-04T22:36:26.617Z,14.53
2018-07-04T22:39:11.547Z,16.70
2018-07-04T22:41:56.594Z,14.57
2018-07-04T22:44:41.528Z,15.77
2018-07-04T22:47:26.614Z,15.07
2018-07-04T22:50:11.641Z,12.47
2018-07-04T22:52:56.735Z,12.33
2018-07-04T22:55:41.881Z,16.77
2018-07-04T22:58:27.154Z,11.03
2018-07-04T23:01:12.161Z,15.47
2018-07-04T23:03:57.209Z,13.77
2018-07-04T23:06:42.299Z,11.13
2018-07-04T23:09:27.410Z,12.07
2018-07-04T23:12:12.419Z,14.63
2018-07-04T23:14:57.481Z,12.27
2018-07-04T23:17:42.491Z,11.30
2018-07-04T23:20:27.474Z,10.67
2018-07-04T23:23:12.518Z,12.50
2018-07-04T23:25:57.505Z,12.50
2018-07-04T23:28:42.983Z,10.23
2018-07-04T23:31:28.165Z,11.30
2018-07-04T23:34:13.175Z,14.37
2018-07-04T23:36:58.126Z,10.13
2018-07-04T23:39:43.198Z,13.23
2018-07-04T23:42:28.100Z,10.77
2018-07-04T23:45:13.174Z,11.10
2018-07-04T23:47:58.366Z,13.40
2018-07-04T23:50:43.275Z,12.43
2018-07-04T23:53:28.329Z,16.53
2018-07-04T23:56:13.350Z,12.33
2018-07-04T23:58:58.397Z,12.73
